sensor_id;sensor_type;location;lat;lon;timestamp;pressure;altitude;pressure_sealevel;temperature;humidity
75895;BME280;64573;50.328;15.014;2023-07-28T00:00:04;98054.69;;;16.51;100.00
75895;BME280;64573;50.328;15.014;2023-07-28T00:02:29;98053.06;;;16.50;100.00
75895;BME280;64573;50.328;15.014;2023-07-28T00:04:55;98052.63;;;16.41;100.00
75895;BME280;64573;50.328;15.014;2023-07-28T00:07:20;98047.28;;;16.30;100.00
75895;BME280;64573;50.328;15.014;2023-07-28T00:09:45;98056.44;;;16.28;100.00
75895;BME280;64573;50.328;15.014;2023-07-28T00:12:11;98049.50;;;16.33;100.00
75895;BME280;64573;50.328;15.014;2023-07-28T00:14:36;98049.50;;;16.33;100.00
75895;BME280;64573;50.328;15.014;2023-07-28T00:17:01;98047.03;;;16.31;100.00
75895;BME280;64573;50.328;15.014;2023-07-28T00:19:27;98045.97;;;16.32;100.00
75895;BME280;64573;50.328;15.014;2023-07-28T00:21:52;98045.72;;;16.34;100.00
75895;BME280;64573;50.328;15.014;2023-07-28T00:24:18;98043.38;;;16.37;100.00
75895;BME280;64573;50.328;15.014;2023-07-28T00:26:43;98039.00;;;16.36;100.00
75895;BME280;64573;50.328;15.014;2023-07-28T00:29:09;98037.34;;;16.35;100.00
75895;BME280;64573;50.328;15.014;2023-07-28T00:31:35;98041.13;;;16.34;100.00
75895;BME280;64573;50.328;15.014;2023-07-28T00:34:02;98040.31;;;16.34;100.00
75895;BME280;64573;50.328;15.014;2023-07-28T00:36:27;98037.47;;;16.40;100.00
75895;BME280;64573;50.328;15.014;2023-07-28T00:38:53;98042.53;;;16.37;100.00
75895;BME280;64573;50.328;15.014;2023-07-28T00:41:18;98035.97;;;16.33;100.00
75895;BME280;64573;50.328;15.014;2023-07-28T00:43:43;98038.78;;;16.38;100.00
75895;BME280;64573;50.328;15.014;2023-07-28T00:46:12;98040.75;;;16.42;100.00
75895;BME280;64573;50.328;15.014;2023-07-28T00:48:39;98035.25;;;16.37;100.00
75895;BME280;64573;50.328;15.014;2023-07-28T00:51:06;98033.13;;;16.39;100.00
75895;BME280;64573;50.328;15.014;2023-07-28T00:53:32;98034.63;;;16.47;100.00
75895;BME280;64573;50.328;15.014;2023-07-28T00:55:57;98020.84;;;16.48;100.00
75895;BME280;64573;50.328;15.014;2023-07-28T00:58:23;98017.06;;;16.49;100.00
75895;BME280;64573;50.328;15.014;2023-07-28T01:00:49;98014.47;;;16.54;100.00
75895;BME280;64573;50.328;15.014;2023-07-28T01:03:17;98017.97;;;16.55;100.00
75895;BME280;64573;50.328;15.014;2023-07-28T01:11:02;98007.00;;;16.62;100.00
75895;BME280;64573;50.328;15.014;2023-07-28T01:13:28;98002.97;;;16.64;100.00
75895;BME280;64573;50.328;15.014;2023-07-28T01:15:54;98000.19;;;16.59;100.00
75895;BME280;64573;50.328;15.014;2023-07-28T01:18:19;98003.63;;;16.54;100.00
75895;BME280;64573;50.328;15.014;2023-07-28T01:20:46;97993.53;;;16.50;100.00
75895;BME280;64573;50.328;15.014;2023-07-28T01:23:19;97998.25;;;16.43;100.00
75895;BME280;64573;50.328;15.014;2023-07-28T01:26:05;97999.47;;;16.35;100.00
75895;BME280;64573;50.328;15.014;2023-07-28T01:28:33;98000.63;;;16.22;100.00
75895;BME280;64573;50.328;15.014;2023-07-28T01:31:01;98002.63;;;16.15;100.00
75895;BME280;64573;50.328;15.014;2023-07-28T01:33:26;98009.69;;;16.16;100.00
75895;BME280;64573;50.328;15.014;2023-07-28T01:35:52;98003.47;;;16.16;100.00
75895;BME280;64573;50.328;15.014;2023-07-28T01:38:17;98005.81;;;16.12;100.00
75895;BME280;64573;50.328;15.014;2023-07-28T01:40:42;98005.81;;;16.12;100.00
75895;BME280;64573;50.328;15.014;2023-07-28T01:43:08;98000.75;;;16.16;100.00
75895;BME280;64573;50.328;15.014;2023-07-28T01:45:33;97996.50;;;16.20;100.00
75895;BME280;64573;50.328;15.014;2023-07-28T01:47:58;97995.34;;;16.16;100.00
75895;BME280;64573;50.328;15.014;2023-07-28T01:50:24;97999.69;;;16.17;100.00
75895;BME280;64573;50.328;15.014;2023-07-28T01:52:49;98002.16;;;16.18;100.00
75895;BME280;64573;50.328;15.014;2023-07-28T01:55:14;98002.63;;;16.15;100.00
75895;BME280;64573;50.328;15.014;2023-07-28T01:57:50;97993.47;;;16.16;100.00
75895;BME280;64573;50.328;15.014;2023-07-28T02:00:16;97985.66;;;16.20;100.00
75895;BME280;64573;50.328;15.014;2023-07-28T02:02:42;97988.13;;;16.21;100.00
75895;BME280;64573;50.328;15.014;2023-07-28T02:05:07;97990.97;;;16.15;100.00
75895;BME280;64573;50.328;15.014;2023-07-28T02:07:33;97990.75;;;16.16;100.00
75895;BME280;64573;50.328;15.014;2023-07-28T02:09:58;97983.69;;;16.15;100.00
75895;BME280;64573;50.328;15.014;2023-07-28T02:12:23;97992.72;;;16.21;100.00
75895;BME280;64573;50.328;15.014;2023-07-28T02:14:49;97992.72;;;16.21;100.00
75895;BME280;64573;50.328;15.014;2023-07-28T02:17:14;97994.59;;;16.20;100.00
75895;BME280;64573;50.328;15.014;2023-07-28T02:19:39;97996.59;;;16.25;100.00
75895;BME280;64573;50.328;15.014;2023-07-28T02:22:05;97994.97;;;16.24;100.00
75895;BME280;64573;50.328;15.014;2023-07-28T02:24:30;97985.91;;;16.18;100.00
75895;BME280;64573;50.328;15.014;2023-07-28T02:26:55;97995.19;;;16.22;100.00
75895;BME280;64573;50.328;15.014;2023-07-28T02:29:21;97994.59;;;16.20;100.00
75895;BME280;64573;50.328;15.014;2023-07-28T02:31:46;97986.59;;;16.25;100.00
75895;BME280;64573;50.328;15.014;2023-07-28T02:34:11;97990.13;;;16.26;100.00
75895;BME280;64573;50.328;15.014;2023-07-28T02:36:37;97985.88;;;16.30;100.00
75895;BME280;64573;50.328;15.014;2023-07-28T02:39:02;97976.69;;;16.31;100.00
75895;BME280;64573;50.328;15.014;2023-07-28T02:41:28;97982.66;;;16.33;100.00
75895;BME280;64573;50.328;15.014;2023-07-28T02:43:53;97987.00;;;16.34;100.00
75895;BME280;64573;50.328;15.014;2023-07-28T02:46:18;97982.91;;;16.32;100.00
75895;BME280;64573;50.328;15.014;2023-07-28T02:48:44;97980.13;;;16.43;100.00
75895;BME280;64573;50.328;15.014;2023-07-28T02:51:09;97984.41;;;16.39;100.00
75895;BME280;64573;50.328;15.014;2023-07-28T02:53:34;97979.81;;;16.40;100.00
75895;BME280;64573;50.328;15.014;2023-07-28T02:56:00;97984.31;;;16.34;100.00
75895;BME280;64573;50.328;15.014;2023-07-28T02:58:25;97984.31;;;16.34;100.00
75895;BME280;64573;50.328;15.014;2023-07-28T03:00:51;97983.25;;;16.35;100.00
75895;BME280;64573;50.328;15.014;2023-07-28T03:03:17;97985.22;;;16.40;100.00
75895;BME280;64573;50.328;15.014;2023-07-28T03:05:42;97981.22;;;16.42;100.00
75895;BME280;64573;50.328;15.014;2023-07-28T03:08:07;97986.88;;;16.41;100.00
75895;BME280;64573;50.328;15.014;2023-07-28T03:10:32;97983.50;;;16.34;100.00
75895;BME280;64573;50.328;15.014;2023-07-28T03:12:58;97985.94;;;16.35;100.00
75895;BME280;64573;50.328;15.014;2023-07-28T03:15:23;97985.94;;;16.35;100.00
75895;BME280;64573;50.328;15.014;2023-07-28T03:17:49;97981.34;;;16.36;100.00
75895;BME280;64573;50.328;15.014;2023-07-28T03:20:15;97985.94;;;16.35;100.00
75895;BME280;64573;50.328;15.014;2023-07-28T03:22:40;97978.22;;;16.27;100.00
75895;BME280;64573;50.328;15.014;2023-07-28T03:25:06;97982.66;;;16.33;100.00
75895;BME280;64573;50.328;15.014;2023-07-28T03:27:32;97991.84;;;16.32;100.00
75895;BME280;64573;50.328;15.014;2023-07-28T03:29:57;97987.13;;;16.39;100.00
75895;BME280;64573;50.328;15.014;2023-07-28T03:32:22;97987.25;;;16.33;100.00
75895;BME280;64573;50.328;15.014;2023-07-28T03:34:48;97993.34;;;16.40;100.00
75895;BME280;64573;50.328;15.014;2023-07-28T03:37:13;97983.91;;;16.42;100.00
75895;BME280;64573;50.328;15.014;2023-07-28T03:39:38;97987.22;;;16.44;100.00
75895;BME280;64573;50.328;15.014;2023-07-28T03:42:04;97983.84;;;16.37;100.00
75895;BME280;64573;50.328;15.014;2023-07-28T03:44:29;97986.97;;;16.46;100.00
75895;BME280;64573;50.328;15.014;2023-07-28T03:46:55;97987.53;;;16.48;100.00
75895;BME280;64573;50.328;15.014;2023-07-28T03:49:20;97988.34;;;16.48;100.00
75895;BME280;64573;50.328;15.014;2023-07-28T03:51:46;97991.72;;;16.55;100.00
75895;BME280;64573;50.328;15.014;2023-07-28T03:54:11;97989.75;;;16.51;100.00
75895;BME280;64573;50.328;15.014;2023-07-28T03:56:36;97975.34;;;16.62;100.00
75895;BME280;64573;50.328;15.014;2023-07-28T03:59:02;97980.44;;;16.59;100.00
75895;BME280;64573;50.328;15.014;2023-07-28T04:01:27;97986.06;;;16.57;100.00
75895;BME280;64573;50.328;15.014;2023-07-28T04:03:52;97984.53;;;16.61;100.00
75895;BME280;64573;50.328;15.014;2023-07-28T04:06:18;97984.78;;;16.60;100.00
75895;BME280;64573;50.328;15.014;2023-07-28T04:08:43;97985.41;;;16.50;100.00
75895;BME280;64573;50.328;15.014;2023-07-28T04:11:08;97979.28;;;16.54;100.00
75895;BME280;64573;50.328;15.014;2023-07-28T04:13:34;97981.16;;;16.54;100.00
75895;BME280;64573;50.328;15.014;2023-07-28T04:16:00;97988.31;;;16.60;100.00
75895;BME280;64573;50.328;15.014;2023-07-28T04:18:26;97985.75;;;16.53;100.00
75895;BME280;64573;50.328;15.014;2023-07-28T04:20:51;97998.72;;;16.51;100.00
75895;BME280;64573;50.328;15.014;2023-07-28T04:23:17;98002.00;;;16.53;100.00
75895;BME280;64573;50.328;15.014;2023-07-28T04:25:42;97992.31;;;16.58;100.00
75895;BME280;64573;50.328;15.014;2023-07-28T04:28:07;98002.72;;;16.49;100.00
75895;BME280;64573;50.328;15.014;2023-07-28T04:30:34;98006.22;;;16.49;100.00
75895;BME280;64573;50.328;15.014;2023-07-28T04:32:59;98006.09;;;16.56;100.00
75895;BME280;64573;50.328;15.014;2023-07-28T04:35:24;98007.50;;;16.59;100.00
75895;BME280;64573;50.328;15.014;2023-07-28T04:37:50;97997.88;;;16.51;100.00
75895;BME280;64573;50.328;15.014;2023-07-28T04:40:15;98013.25;;;16.62;100.00
75895;BME280;64573;50.328;15.014;2023-07-28T04:42:40;98004.97;;;16.69;100.00
75895;BME280;64573;50.328;15.014;2023-07-28T04:45:06;98000.63;;;16.68;100.00
75895;BME280;64573;50.328;15.014;2023-07-28T04:47:32;98004.84;;;16.75;100.00
75895;BME280;64573;50.328;15.014;2023-07-28T04:49:57;97998.63;;;16.63;100.00
75895;BME280;64573;50.328;15.014;2023-07-28T04:52:23;97999.91;;;16.72;100.00
75895;BME280;64573;50.328;15.014;2023-07-28T04:54:48;98003.63;;;16.83;100.00
75895;BME280;64573;50.328;15.014;2023-07-28T04:57:13;98000.91;;;16.83;100.00
75895;BME280;64573;50.328;15.014;2023-07-28T04:59:39;98003.28;;;16.79;100.00
75895;BME280;64573;50.328;15.014;2023-07-28T05:02:04;97994.94;;;16.81;100.00
75895;BME280;64573;50.328;15.014;2023-07-28T05:04:30;98013.28;;;16.79;100.00
75895;BME280;64573;50.328;15.014;2023-07-28T05:06:55;98008.28;;;16.71;100.00
75895;BME280;64573;50.328;15.014;2023-07-28T05:09:21;98006.81;;;16.80;100.00
75895;BME280;64573;50.328;15.014;2023-07-28T05:11:46;98021.25;;;16.86;100.00
75895;BME280;64573;50.328;15.014;2023-07-28T05:14:11;98023.66;;;16.82;100.00
75895;BME280;64573;50.328;15.014;2023-07-28T05:16:37;98021.66;;;16.77;100.00
75895;BME280;64573;50.328;15.014;2023-07-28T05:19:05;98012.31;;;16.85;100.00
75895;BME280;64573;50.328;15.014;2023-07-28T05:21:31;98016.09;;;17.01;100.00
75895;BME280;64573;50.328;15.014;2023-07-28T05:23:56;98021.09;;;16.92;100.00
75895;BME280;64573;50.328;15.014;2023-07-28T05:26:21;98021.19;;;16.97;100.00
75895;BME280;64573;50.328;15.014;2023-07-28T05:28:47;98022.09;;;17.03;100.00
75895;BME280;64573;50.328;15.014;2023-07-28T05:31:12;98028.84;;;17.17;100.00
75895;BME280;64573;50.328;15.014;2023-07-28T05:33:40;98022.56;;;17.00;100.00
75895;BME280;64573;50.328;15.014;2023-07-28T05:36:05;98039.81;;;16.94;100.00
75895;BME280;64573;50.328;15.014;2023-07-28T05:38:31;98035.72;;;16.91;100.00
75895;BME280;64573;50.328;15.014;2023-07-28T05:41:00;98035.38;;;16.88;100.00
75895;BME280;64573;50.328;15.014;2023-07-28T05:43:26;98031.63;;;16.89;100.00
75895;BME280;64573;50.328;15.014;2023-07-28T05:45:52;98030.94;;;16.98;100.00
75895;BME280;64573;50.328;15.014;2023-07-28T05:48:18;98030.84;;;16.93;100.00
75895;BME280;64573;50.328;15.014;2023-07-28T05:50:43;98036.13;;;17.00;100.00
75895;BME280;64573;50.328;15.014;2023-07-28T05:53:09;98032.44;;;17.06;100.00
75895;BME280;64573;50.328;15.014;2023-07-28T05:55:34;98033.34;;;17.12;100.00
75895;BME280;64573;50.328;15.014;2023-07-28T05:57:59;98039.19;;;17.03;100.00
75895;BME280;64573;50.328;15.014;2023-07-28T06:00:25;98043.94;;;17.13;100.00
75895;BME280;64573;50.328;15.014;2023-07-28T06:02:52;98029.41;;;17.19;100.00
75895;BME280;64573;50.328;15.014;2023-07-28T06:05:18;98044.56;;;17.37;100.00
75895;BME280;64573;50.328;15.014;2023-07-28T06:07:43;98042.38;;;17.34;100.00
75895;BME280;64573;50.328;15.014;2023-07-28T06:10:09;98054.16;;;17.45;100.00
75895;BME280;64573;50.328;15.014;2023-07-28T06:12:34;98052.63;;;17.49;100.00
75895;BME280;64573;50.328;15.014;2023-07-28T06:15:01;98045.06;;;17.51;100.00
75895;BME280;64573;50.328;15.014;2023-07-28T06:17:26;98043.50;;;17.72;100.00
75895;BME280;64573;50.328;15.014;2023-07-28T06:19:53;98049.28;;;17.80;100.00
75895;BME280;64573;50.328;15.014;2023-07-28T06:22:19;98052.53;;;17.77;100.00
75895;BME280;64573;50.328;15.014;2023-07-28T06:24:44;98050.72;;;17.83;100.00
75895;BME280;64573;50.328;15.014;2023-07-28T06:27:09;98058.06;;;17.87;100.00
75895;BME280;64573;50.328;15.014;2023-07-28T06:29:35;98049.56;;;18.23;100.00
75895;BME280;64573;50.328;15.014;2023-07-28T06:32:01;98057.09;;;18.15;100.00
75895;BME280;64573;50.328;15.014;2023-07-28T06:34:26;98058.91;;;18.10;100.00
75895;BME280;64573;50.328;15.014;2023-07-28T06:36:52;98062.50;;;17.94;100.00
75895;BME280;64573;50.328;15.014;2023-07-28T06:39:17;98063.97;;;18.23;100.00
75895;BME280;64573;50.328;15.014;2023-07-28T06:41:43;98060.69;;;18.43;100.00
75895;BME280;64573;50.328;15.014;2023-07-28T06:44:08;98065.28;;;18.42;100.00
75895;BME280;64573;50.328;15.014;2023-07-28T06:46:34;98067.47;;;18.45;100.00
75895;BME280;64573;50.328;15.014;2023-07-28T06:48:59;98068.78;;;18.65;100.00
75895;BME280;64573;50.328;15.014;2023-07-28T06:51:25;98066.28;;;18.58;100.00
75895;BME280;64573;50.328;15.014;2023-07-28T06:53:51;98074.50;;;18.19;100.00
75895;BME280;64573;50.328;15.014;2023-07-28T06:56:16;98072.91;;;18.02;100.00
75895;BME280;64573;50.328;15.014;2023-07-28T06:58:41;98083.16;;;18.38;100.00
75895;BME280;64573;50.328;15.014;2023-07-28T07:01:07;98074.31;;;18.48;100.00
75895;BME280;64573;50.328;15.014;2023-07-28T07:03:36;98076.03;;;18.54;100.00
75895;BME280;64573;50.328;15.014;2023-07-28T07:06:01;98073.50;;;18.48;100.00
75895;BME280;64573;50.328;15.014;2023-07-28T07:08:27;98072.31;;;18.65;100.00
75895;BME280;64573;50.328;15.014;2023-07-28T07:10:52;98078.72;;;18.54;100.00
75895;BME280;64573;50.328;15.014;2023-07-28T07:13:18;98071.00;;;18.46;100.00
75895;BME280;64573;50.328;15.014;2023-07-28T07:15:44;98081.13;;;18.51;100.00
75895;BME280;64573;50.328;15.014;2023-07-28T07:18:09;98076.31;;;18.80;100.00
75895;BME280;64573;50.328;15.014;2023-07-28T07:20:36;98074.47;;;18.85;100.00
75895;BME280;64573;50.328;15.014;2023-07-28T07:23:01;98081.75;;;19.12;100.00
75895;BME280;64573;50.328;15.014;2023-07-28T07:25:27;98074.63;;;19.00;100.00
75895;BME280;64573;50.328;15.014;2023-07-28T07:27:52;98066.59;;;19.16;100.00
75895;BME280;64573;50.328;15.014;2023-07-28T07:30:17;98080.69;;;19.45;100.00
75895;BME280;64573;50.328;15.014;2023-07-28T07:32:43;98061.22;;;19.26;100.00
75895;BME280;64573;50.328;15.014;2023-07-28T07:35:08;98075.69;;;19.32;100.00
75895;BME280;64573;50.328;15.014;2023-07-28T07:37:34;98071.91;;;19.65;100.00
75895;BME280;64573;50.328;15.014;2023-07-28T07:39:59;98079.69;;;19.93;100.00
75895;BME280;64573;50.328;15.014;2023-07-28T07:42:40;98085.06;;;19.78;100.00
75895;BME280;64573;50.328;15.014;2023-07-28T07:45:12;98082.59;;;19.81;100.00
75895;BME280;64573;50.328;15.014;2023-07-28T07:47:39;98083.06;;;20.16;100.00
75895;BME280;64573;50.328;15.014;2023-07-28T07:50:06;98073.25;;;20.82;100.00
75895;BME280;64573;50.328;15.014;2023-07-28T07:52:32;98074.94;;;21.24;100.00
75895;BME280;64573;50.328;15.014;2023-07-28T07:54:57;98075.75;;;20.94;100.00
75895;BME280;64573;50.328;15.014;2023-07-28T07:57:22;98077.09;;;20.14;100.00
75895;BME280;64573;50.328;15.014;2023-07-28T07:59:48;98083.34;;;20.19;100.00
75895;BME280;64573;50.328;15.014;2023-07-28T08:02:13;98085.13;;;19.93;100.00
75895;BME280;64573;50.328;15.014;2023-07-28T08:04:38;98075.72;;;20.16;100.00
75895;BME280;64573;50.328;15.014;2023-07-28T08:07:04;98080.34;;;20.16;100.00
75895;BME280;64573;50.328;15.014;2023-07-28T08:09:30;98084.16;;;20.15;100.00
75895;BME280;64573;50.328;15.014;2023-07-28T08:11:55;98077.66;;;20.26;100.00
75895;BME280;64573;50.328;15.014;2023-07-28T08:14:21;98073.25;;;20.92;100.00
75895;BME280;64573;50.328;15.014;2023-07-28T08:16:46;98071.47;;;20.35;100.00
75895;BME280;64573;50.328;15.014;2023-07-28T08:19:12;98075.34;;;20.45;100.00
75895;BME280;64573;50.328;15.014;2023-07-28T08:21:37;98084.13;;;20.67;100.00
75895;BME280;64573;50.328;15.014;2023-07-28T08:24:03;98081.63;;;20.50;98.84
75895;BME280;64573;50.328;15.014;2023-07-28T08:26:29;98093.75;;;21.20;99.90
75895;BME280;64573;50.328;15.014;2023-07-28T08:28:55;98071.13;;;21.10;95.60
75895;BME280;64573;50.328;15.014;2023-07-28T08:31:20;98081.22;;;21.19;99.32
75895;BME280;64573;50.328;15.014;2023-07-28T08:33:46;98079.59;;;21.34;97.43
75895;BME280;64573;50.328;15.014;2023-07-28T08:36:12;98089.72;;;21.38;95.67
75895;BME280;64573;50.328;15.014;2023-07-28T08:38:37;98093.72;;;21.05;97.39
75895;BME280;64573;50.328;15.014;2023-07-28T08:41:03;98081.47;;;21.18;94.46
75895;BME280;64573;50.328;15.014;2023-07-28T08:43:30;98075.75;;;21.70;93.76
75895;BME280;64573;50.328;15.014;2023-07-28T08:45:56;98080.16;;;21.31;92.52
75895;BME280;64573;50.328;15.014;2023-07-28T08:48:23;98085.00;;;21.03;93.95
75895;BME280;64573;50.328;15.014;2023-07-28T08:50:49;98076.25;;;21.93;94.17
75895;BME280;64573;50.328;15.014;2023-07-28T08:53:14;98062.19;;;22.95;85.14
75895;BME280;64573;50.328;15.014;2023-07-28T08:55:40;98076.19;;;22.28;84.53
75895;BME280;64573;50.328;15.014;2023-07-28T08:58:19;98070.56;;;22.59;84.26
75895;BME280;64573;50.328;15.014;2023-07-28T09:00:46;98079.34;;;22.51;81.20
75895;BME280;64573;50.328;15.014;2023-07-28T09:03:14;98079.13;;;22.42;83.01
75895;BME280;64573;50.328;15.014;2023-07-28T09:05:39;98071.50;;;22.94;78.83
75895;BME280;64573;50.328;15.014;2023-07-28T09:08:06;98079.81;;;21.93;83.14
75895;BME280;64573;50.328;15.014;2023-07-28T09:10:46;98083.44;;;21.48;85.69
75895;BME280;64573;50.328;15.014;2023-07-28T09:13:17;98082.06;;;21.56;89.96
75895;BME280;64573;50.328;15.014;2023-07-28T09:15:42;98074.63;;;22.02;87.28
75895;BME280;64573;50.328;15.014;2023-07-28T09:18:09;98074.84;;;22.26;84.18
75895;BME280;64573;50.328;15.014;2023-07-28T09:20:36;98073.50;;;22.13;84.36
75895;BME280;64573;50.328;15.014;2023-07-28T09:23:02;98081.75;;;21.78;83.79
75895;BME280;64573;50.328;15.014;2023-07-28T09:25:29;98082.53;;;22.03;86.27
75895;BME280;64573;50.328;15.014;2023-07-28T09:27:55;98082.84;;;21.77;84.16
75895;BME280;64573;50.328;15.014;2023-07-28T09:30:21;98082.22;;;22.20;85.84
75895;BME280;64573;50.328;15.014;2023-07-28T09:32:49;98080.69;;;23.08;80.39
75895;BME280;64573;50.328;15.014;2023-07-28T09:35:15;98084.19;;;24.11;73.63
75895;BME280;64573;50.328;15.014;2023-07-28T09:37:44;98068.75;;;25.06;66.73
75895;BME280;64573;50.328;15.014;2023-07-28T09:40:13;98077.63;;;24.36;67.46
75895;BME280;64573;50.328;15.014;2023-07-28T09:42:40;98079.97;;;23.31;71.58
75895;BME280;64573;50.328;15.014;2023-07-28T09:45:07;98072.75;;;23.80;70.99
75895;BME280;64573;50.328;15.014;2023-07-28T09:47:34;98066.66;;;23.83;74.10
75895;BME280;64573;50.328;15.014;2023-07-28T09:50:04;98068.97;;;23.42;72.22
75895;BME280;64573;50.328;15.014;2023-07-28T09:52:36;98075.31;;;23.95;71.08
75895;BME280;64573;50.328;15.014;2023-07-28T09:55:07;98077.25;;;23.31;73.07
75895;BME280;64573;50.328;15.014;2023-07-28T09:57:45;98081.31;;;23.00;76.05
75895;BME280;64573;50.328;15.014;2023-07-28T10:00:12;98077.75;;;23.04;75.67
75895;BME280;64573;50.328;15.014;2023-07-28T10:05:07;98077.41;;;23.79;71.44
75895;BME280;64573;50.328;15.014;2023-07-28T10:07:35;98073.97;;;23.69;71.92
75895;BME280;64573;50.328;15.014;2023-07-28T10:10:03;98071.84;;;24.37;68.64
75895;BME280;64573;50.328;15.014;2023-07-28T10:12:39;98054.97;;;24.92;67.90
75895;BME280;64573;50.328;15.014;2023-07-28T10:15:07;98057.22;;;25.74;62.23
75895;BME280;64573;50.328;15.014;2023-07-28T10:17:33;98061.03;;;26.60;58.46
75895;BME280;64573;50.328;15.014;2023-07-28T10:20:02;98068.38;;;26.51;59.42
75895;BME280;64573;50.328;15.014;2023-07-28T10:22:32;98060.19;;;25.26;61.00
75895;BME280;64573;50.328;15.014;2023-07-28T10:25:01;98065.00;;;24.11;65.56
75895;BME280;64573;50.328;15.014;2023-07-28T10:27:30;98055.91;;;22.94;71.44
75895;BME280;64573;50.328;15.014;2023-07-28T10:29:59;98079.22;;;22.81;73.90
75895;BME280;64573;50.328;15.014;2023-07-28T10:32:27;98081.94;;;22.87;74.53
75895;BME280;64573;50.328;15.014;2023-07-28T10:35:06;98093.34;;;22.99;72.35
75895;BME280;64573;50.328;15.014;2023-07-28T10:37:32;98084.84;;;23.05;71.67
75895;BME280;64573;50.328;15.014;2023-07-28T10:42:51;98094.75;;;22.96;71.90
75895;BME280;64573;50.328;15.014;2023-07-28T10:45:17;98082.72;;;22.92;72.86
75895;BME280;64573;50.328;15.014;2023-07-28T10:47:43;98101.25;;;23.05;72.64
75895;BME280;64573;50.328;15.014;2023-07-28T10:50:09;98099.22;;;23.21;70.85
75895;BME280;64573;50.328;15.014;2023-07-28T10:52:42;98092.88;;;22.87;71.25
75895;BME280;64573;50.328;15.014;2023-07-28T10:55:18;98109.50;;;23.34;72.30
75895;BME280;64573;50.328;15.014;2023-07-28T10:57:46;98106.56;;;23.26;73.01
75895;BME280;64573;50.328;15.014;2023-07-28T11:00:14;98095.88;;;23.29;71.76
75895;BME280;64573;50.328;15.014;2023-07-28T11:02:53;98104.22;;;23.09;71.52
75895;BME280;64573;50.328;15.014;2023-07-28T11:05:27;98104.97;;;23.20;71.49
75895;BME280;64573;50.328;15.014;2023-07-28T11:07:58;98101.06;;;22.92;71.13
75895;BME280;64573;50.328;15.014;2023-07-28T11:10:24;98110.19;;;23.16;71.10
75895;BME280;64573;50.328;15.014;2023-07-28T11:12:51;98100.03;;;23.56;69.47
75895;BME280;64573;50.328;15.014;2023-07-28T11:15:18;98103.00;;;23.93;67.85
75895;BME280;64573;50.328;15.014;2023-07-28T11:17:48;98106.34;;;24.14;64.86
75895;BME280;64573;50.328;15.014;2023-07-28T11:20:17;98102.41;;;24.92;62.81
75895;BME280;64573;50.328;15.014;2023-07-28T11:22:43;98098.28;;;24.90;61.90
75895;BME280;64573;50.328;15.014;2023-07-28T11:25:09;98094.31;;;25.20;61.01
75895;BME280;64573;50.328;15.014;2023-07-28T11:27:39;98103.59;;;25.24;61.07
75895;BME280;64573;50.328;15.014;2023-07-28T11:30:07;98087.94;;;25.24;58.87
75895;BME280;64573;50.328;15.014;2023-07-28T11:32:36;98093.03;;;25.82;58.39
75895;BME280;64573;50.328;15.014;2023-07-28T11:35:06;98095.72;;;25.69;59.13
75895;BME280;64573;50.328;15.014;2023-07-28T11:37:33;98087.63;;;25.77;58.52
75895;BME280;64573;50.328;15.014;2023-07-28T11:40:00;98088.06;;;24.95;57.28
75895;BME280;64573;50.328;15.014;2023-07-28T11:44:55;98080.03;;;24.61;59.61
75895;BME280;64573;50.328;15.014;2023-07-28T11:47:21;98091.53;;;24.82;59.21
75895;BME280;64573;50.328;15.014;2023-07-28T11:49:48;98078.19;;;24.75;59.56
75895;BME280;64573;50.328;15.014;2023-07-28T11:52:13;98077.63;;;24.97;60.15
75895;BME280;64573;50.328;15.014;2023-07-28T11:54:40;98093.66;;;24.47;60.70
75895;BME280;64573;50.328;15.014;2023-07-28T11:57:07;98092.66;;;24.81;59.93
75895;BME280;64573;50.328;15.014;2023-07-28T11:59:34;98090.16;;;26.61;55.32
75895;BME280;64573;50.328;15.014;2023-07-28T12:02:01;98088.66;;;27.05;52.54
75895;BME280;64573;50.328;15.014;2023-07-28T12:04:36;98079.81;;;27.31;51.51
75895;BME280;64573;50.328;15.014;2023-07-28T12:07:04;98084.31;;;27.71;49.44
75895;BME280;64573;50.328;15.014;2023-07-28T12:12:15;98089.72;;;27.77;50.44
75895;BME280;64573;50.328;15.014;2023-07-28T12:14:41;98084.63;;;26.34;50.39
75895;BME280;64573;50.328;15.014;2023-07-28T12:17:17;98077.69;;;25.81;52.71
75895;BME280;64573;50.328;15.014;2023-07-28T12:19:57;98088.94;;;25.47;53.46
75895;BME280;64573;50.328;15.014;2023-07-28T12:22:22;98080.28;;;24.84;54.61
75895;BME280;64573;50.328;15.014;2023-07-28T12:24:48;98069.84;;;25.05;54.66
75895;BME280;64573;50.328;15.014;2023-07-28T12:27:13;98078.03;;;26.62;52.48
75895;BME280;64573;50.328;15.014;2023-07-28T12:29:39;98080.31;;;27.33;49.06
75895;BME280;64573;50.328;15.014;2023-07-28T12:32:05;98072.66;;;26.30;50.67
75895;BME280;64573;50.328;15.014;2023-07-28T12:34:30;98070.56;;;26.77;49.05
75895;BME280;64573;50.328;15.014;2023-07-28T12:36:56;98078.16;;;27.30;47.62
75895;BME280;64573;50.328;15.014;2023-07-28T12:39:21;98078.25;;;27.38;46.46
75895;BME280;64573;50.328;15.014;2023-07-28T12:41:47;98071.78;;;28.27;46.05
75895;BME280;64573;50.328;15.014;2023-07-28T12:44:12;98079.88;;;27.39;46.05
75895;BME280;64573;50.328;15.014;2023-07-28T12:46:39;98073.13;;;28.96;43.35
75895;BME280;64573;50.328;15.014;2023-07-28T12:49:04;98075.88;;;29.04;42.23
75895;BME280;64573;50.328;15.014;2023-07-28T12:51:32;98066.78;;;29.38;40.84
75895;BME280;64573;50.328;15.014;2023-07-28T12:53:57;98072.03;;;28.40;42.57